createdAt,value
2018-05-04T00:00:46.666Z,80.92
2018-05-04T00:01:50.761Z,81.03
2018-05-04T00:02:54.831Z,81.61
2018-05-04T00:03:58.882Z,81.97
2018-05-04T00:05:03.024Z,82.11
2018-05-04T00:06:07.091Z,82.19
2018-05-04T00:07:11.143Z,82.27
2018-05-04T00:08:15.237Z,82.23
2018-05-04T00:09:19.296Z,82.16
2018-05-04T00:10:23.445Z,82.19
2018-05-04T00:11:27.601Z,82.31
2018-05-04T00:12:31.665Z,82.21
2018-05-04T00:13:35.732Z,82.02
2018-05-04T00:14:39.921Z,81.65
2018-05-04T00:15:44.119Z,81.33
2018-05-04T00:16:48.511Z,81.04
2018-05-04T00:17:52.573Z,81.21
2018-05-04T00:18:57.461Z,81.59
2018-05-04T00:20:02.050Z,81.89
2018-05-04T00:21:06.198Z,82.18
2018-05-04T00:22:10.293Z,82.25
2018-05-04T00:23:14.695Z,82.44
2018-05-04T00:24:18.788Z,82.62
2018-05-04T00:25:23.245Z,82.76
2018-05-04T00:26:27.323Z,82.81
2018-05-04T00:27:31.737Z,82.74
2018-05-04T00:28:36.017Z,82.64
2018-05-04T00:29:40.811Z,82.64
2018-05-04T00:30:45.303Z,83.11
2018-05-04T00:31:50.423Z,83.28
2018-05-04T00:32:55.637Z,83.28
2018-05-04T00:33:59.698Z,83.22
2018-05-04T00:35:03.759Z,83.30
2018-05-04T00:36:07.910Z,83.28
2018-05-04T00:37:12.007Z,83.37
2018-05-04T00:38:16.105Z,83.49
2018-05-04T00:39:20.183Z,83.67
2018-05-04T00:40:24.243Z,83.66
2018-05-04T00:41:28.392Z,83.36
2018-05-04T00:42:32.867Z,83.02
2018-05-04T00:43:36.928Z,82.91
2018-05-04T00:44:41.083Z,82.51
2018-05-04T00:45:45.589Z,82.52
2018-05-04T00:46:49.755Z,82.38
2018-05-04T00:47:54.449Z,82.33
2018-05-04T00:48:59.428Z,82.43
2018-05-04T00:50:03.515Z,82.49
2018-05-04T00:51:07.571Z,82.73
2018-05-04T00:52:12.413Z,82.79
2018-05-04T00:53:16.533Z,82.95
2018-05-04T00:54:24.356Z,83.10
2018-05-04T00:55:29.423Z,83.14
2018-05-04T00:56:33.481Z,83.15
2018-05-04T00:57:37.631Z,83.19
2018-05-04T00:58:41.751Z,83.11
2018-05-04T00:59:45.809Z,83.06
2018-05-04T01:00:50.243Z,82.85
2018-05-04T01:01:54.593Z,82.50
2018-05-04T01:02:58.796Z,82.36
2018-05-04T01:04:02.858Z,82.31
2018-05-04T01:05:07.019Z,82.27
2018-05-04T01:06:11.499Z,82.39
2018-05-04T01:07:15.867Z,82.51
2018-05-04T01:08:19.972Z,82.54
2018-05-04T01:09:24.287Z,82.57
2018-05-04T01:10:28.609Z,82.62
2018-05-04T01:11:33.011Z,82.92
2018-05-04T01:12:37.496Z,83.31
2018-05-04T01:13:41.934Z,83.60
2018-05-04T01:14:46.252Z,83.81
2018-05-04T01:15:51.137Z,83.74
2018-05-04T01:16:56.395Z,83.63
2018-05-04T01:18:00.797Z,83.24
2018-05-04T01:19:05.388Z,83.17
2018-05-04T01:20:09.831Z,83.16
2018-05-04T01:21:13.899Z,83.20
2018-05-04T01:22:17.987Z,83.22
2018-05-04T01:23:22.119Z,83.19
2018-05-04T01:24:26.258Z,83.10
2018-05-04T01:25:30.411Z,83.10
2018-05-04T01:26:34.454Z,82.90
2018-05-04T01:27:38.622Z,82.70
2018-05-04T01:28:42.689Z,82.65
2018-05-04T01:29:46.733Z,82.70
2018-05-04T01:30:51.271Z,82.94
2018-05-04T01:31:55.753Z,83.06
2018-05-04T01:33:00.107Z,83.18
2018-05-04T01:34:05.059Z,83.19
2018-05-04T01:35:09.224Z,83.27
2018-05-04T01:36:13.301Z,83.22
2018-05-04T01:37:17.447Z,83.18
2018-05-04T01:38:21.529Z,83.28
2018-05-04T01:39:25.925Z,83.32
2018-05-04T01:40:29.981Z,83.45
2018-05-04T01:41:34.435Z,83.55
2018-05-04T01:42:39.038Z,83.62
2018-05-04T01:43:43.425Z,83.71
2018-05-04T01:44:47.571Z,83.74
2018-05-04T01:45:52.361Z,83.84
2018-05-04T01:46:57.055Z,84.09
2018-05-04T01:48:02.146Z,84.28
2018-05-04T01:49:06.209Z,84.29
2018-05-04T01:50:10.364Z,84.26
2018-05-04T01:51:14.435Z,84.36
2018-05-04T01:52:18.923Z,84.48
2018-05-04T01:53:23.013Z,84.83
2018-05-04T01:54:27.069Z,85.04
2018-05-04T01:55:31.248Z,85.22
2018-05-04T01:56:35.304Z,85.27
2018-05-04T01:57:39.495Z,85.20
2018-05-04T01:58:43.905Z,85.21
2018-05-04T01:59:48.119Z,85.11
2018-05-04T02:00:52.501Z,84.93
2018-05-04T02:01:57.765Z,84.76
2018-05-04T02:03:03.491Z,84.76
2018-05-04T02:04:07.773Z,84.73
2018-05-04T02:05:12.685Z,84.67
2018-05-04T02:06:17.454Z,84.88
2018-05-04T02:07:21.893Z,85.34
2018-05-04T02:08:26.211Z,85.71
2018-05-04T02:09:30.639Z,85.78
2018-05-04T02:10:34.902Z,85.70
2018-05-04T02:11:39.383Z,85.66
2018-05-04T02:12:43.777Z,85.57
2018-05-04T02:13:48.141Z,85.27
2018-05-04T02:14:52.676Z,84.91
2018-05-04T02:15:58.109Z,84.59
2018-05-04T02:17:02.169Z,84.27
2018-05-04T02:18:06.250Z,84.06
2018-05-04T02:19:10.355Z,83.96
2018-05-04T02:20:14.541Z,83.98
2018-05-04T02:21:18.584Z,84.07
2018-05-04T02:22:22.659Z,84.05
2018-05-04T02:23:27.050Z,83.95
2018-05-04T02:24:31.193Z,83.87
2018-05-04T02:25:35.263Z,83.64
2018-05-04T02:26:39.392Z,83.36
2018-05-04T02:27:43.506Z,83.17
2018-05-04T02:28:47.549Z,82.98
2018-05-04T02:29:51.898Z,83.01
2018-05-04T02:30:55.936Z,82.94
2018-05-04T02:32:00.901Z,83.04
2018-05-04T02:33:04.977Z,83.15
2018-05-04T02:34:09.037Z,83.29
2018-05-04T02:35:13.193Z,83.36
2018-05-04T02:36:17.578Z,83.54
2018-05-04T02:37:21.636Z,83.34
2018-05-04T02:38:25.761Z,83.15
2018-05-04T02:39:29.886Z,83.02
2018-05-04T02:40:33.947Z,82.96
2018-05-04T02:41:38.019Z,82.87
2018-05-04T02:42:42.090Z,82.74
2018-05-04T02:43:46.239Z,82.90
2018-05-04T02:44:50.348Z,83.28
2018-05-04T02:45:55.701Z,83.78
2018-05-04T02:47:00.396Z,84.25
2018-05-04T02:48:04.459Z,84.50
2018-05-04T02:49:08.862Z,84.48
2018-05-04T02:50:13.490Z,84.44
2018-05-04T02:51:17.768Z,84.54
2018-05-04T02:52:22.102Z,84.50
2018-05-04T02:53:26.582Z,84.49
2018-05-04T02:54:30.705Z,84.64
2018-05-04T02:55:35.027Z,85.11
2018-05-04T02:56:39.310Z,85.46
2018-05-04T02:57:43.731Z,85.59
2018-05-04T02:58:48.118Z,85.58
2018-05-04T02:59:52.954Z,85.63
2018-05-04T03:00:57.490Z,85.73
2018-05-04T03:02:02.587Z,85.79
2018-05-04T03:03:07.105Z,85.89
2018-05-04T03:04:11.418Z,85.89
2018-05-04T03:05:16.002Z,85.77
2018-05-04T03:06:20.641Z,85.50
2018-05-04T03:07:24.695Z,85.15
2018-05-04T03:08:28.888Z,84.78
2018-05-04T03:09:32.972Z,84.52
2018-05-04T03:10:37.118Z,84.69
2018-05-04T03:11:41.181Z,85.01
2018-05-04T03:12:45.224Z,85.28
2018-05-04T03:13:49.358Z,85.22
2018-05-04T03:14:53.408Z,84.96
2018-05-04T03:15:58.075Z,84.53
2018-05-04T03:17:03.380Z,84.25
2018-05-04T03:18:08.179Z,84.02
2018-05-04T03:19:12.633Z,83.79
2018-05-04T03:20:16.666Z,83.56
2018-05-04T03:21:20.790Z,83.55
2018-05-04T03:22:24.913Z,84.05
2018-05-04T03:23:29.150Z,84.50
2018-05-04T03:24:33.264Z,84.77
2018-05-04T03:25:37.624Z,84.88
2018-05-04T03:26:41.708Z,84.90
2018-05-04T03:27:45.838Z,84.89
2018-05-04T03:28:49.910Z,85.02
2018-05-04T03:29:53.998Z,85.15
2018-05-04T03:30:58.302Z,85.19
2018-05-04T03:32:02.948Z,85.17
2018-05-04T03:33:07.099Z,85.12
2018-05-04T03:34:11.157Z,84.90
2018-05-04T03:35:15.498Z,84.81
2018-05-04T03:36:20.037Z,84.90
2018-05-04T03:37:24.166Z,85.10
2018-05-04T03:38:28.951Z,85.14
2018-05-04T03:39:33.102Z,85.05
2018-05-04T03:40:37.184Z,85.00
2018-05-04T03:41:41.677Z,84.94
2018-05-04T03:42:46.008Z,84.88
2018-05-04T03:43:50.788Z,85.17
2018-05-04T03:44:54.893Z,85.49
2018-05-04T03:45:59.305Z,85.67
2018-05-04T03:47:03.456Z,85.79
2018-05-04T03:48:08.357Z,85.76
2018-05-04T03:49:13.079Z,85.64
2018-05-04T03:50:18.159Z,85.60
2018-05-04T03:51:22.235Z,85.50
2018-05-04T03:52:26.455Z,85.30
2018-05-04T03:53:30.671Z,85.10
2018-05-04T03:54:34.763Z,84.93
2018-05-04T03:55:39.221Z,84.83
2018-05-04T03:56:43.315Z,84.69
2018-05-04T03:57:58.053Z,84.61
2018-05-04T04:04:23.554Z,84.46
2018-05-04T04:05:27.722Z,85.00
2018-05-04T04:06:31.825Z,85.00
2018-05-04T04:07:35.946Z,84.93
2018-05-04T04:08:40.354Z,84.82
2018-05-04T04:09:44.415Z,84.78
2018-05-04T04:10:48.539Z,84.81
2018-05-04T04:11:52.708Z,84.93
2018-05-04T04:12:56.885Z,85.03
2018-05-04T04:14:00.952Z,85.10
2018-05-04T04:15:07.358Z,85.37
2018-05-04T04:16:11.826Z,85.51
2018-05-04T04:17:15.925Z,85.50
2018-05-04T04:18:19.991Z,85.45
2018-05-04T04:19:24.052Z,85.30
2018-05-04T04:20:28.539Z,85.13
2018-05-04T04:21:32.712Z,84.92
2018-05-04T04:22:36.795Z,84.59
2018-05-04T04:23:40.851Z,84.46
2018-05-04T04:24:44.937Z,84.48
2018-05-04T04:25:49.058Z,84.47
2018-05-04T04:26:53.538Z,84.51
2018-05-04T04:27:57.619Z,84.44
2018-05-04T04:29:02.214Z,84.36
2018-05-04T04:30:07.107Z,84.30
2018-05-04T04:31:11.386Z,84.13
2018-05-04T04:32:15.737Z,83.89
2018-05-04T04:33:20.139Z,83.76
2018-05-04T04:34:24.213Z,83.65
2018-05-04T04:35:28.312Z,83.60
2018-05-04T04:36:32.616Z,83.63
2018-05-04T04:37:36.720Z,83.50
2018-05-04T04:38:40.845Z,83.19
2018-05-04T04:39:44.966Z,82.70
2018-05-04T04:40:49.039Z,82.26
2018-05-04T04:41:53.136Z,82.03
2018-05-04T04:42:57.235Z,81.88
2018-05-04T04:44:01.412Z,81.69
2018-05-04T04:45:06.920Z,81.42
2018-05-04T04:46:12.517Z,81.27
2018-05-04T04:47:16.692Z,81.23
2018-05-04T04:48:20.766Z,81.03
2018-05-04T04:49:24.920Z,80.61
2018-05-04T04:50:29.016Z,80.09
2018-05-04T04:51:33.114Z,79.47
2018-05-04T04:52:37.659Z,78.87
2018-05-04T04:53:41.746Z,78.62
2018-05-04T04:54:45.800Z,78.30
2018-05-04T04:55:49.890Z,77.95
2018-05-04T04:56:53.998Z,77.18
2018-05-04T04:57:58.377Z,76.29
2018-05-04T04:59:02.436Z,75.77
2018-05-04T05:00:08.232Z,75.49
2018-05-04T05:01:12.697Z,75.32
2018-05-04T05:02:16.808Z,75.23
2018-05-04T05:03:20.879Z,74.95
2018-05-04T05:04:24.960Z,74.04
2018-05-04T05:05:29.042Z,73.09
2018-05-04T05:06:33.102Z,72.29
2018-05-04T05:07:37.320Z,71.75
2018-05-04T05:08:41.438Z,71.87
2018-05-04T05:09:45.575Z,71.85
2018-05-04T05:10:49.988Z,71.79
2018-05-04T05:11:54.043Z,70.83
2018-05-04T05:12:58.116Z,69.56
2018-05-04T05:14:02.208Z,67.71
2018-05-04T05:15:06.854Z,67.42
2018-05-04T05:16:11.444Z,68.03
2018-05-04T05:17:15.812Z,69.02
2018-05-04T05:18:19.871Z,69.60
2018-05-04T05:19:23.961Z,70.06
2018-05-04T05:20:28.062Z,70.25
2018-05-04T05:21:32.164Z,70.41
2018-05-04T05:22:36.288Z,70.78
2018-05-04T05:23:40.476Z,70.42
2018-05-04T05:24:44.590Z,69.58
2018-05-04T05:25:48.695Z,69.67
2018-05-04T05:26:52.742Z,69.41
2018-05-04T05:27:57.220Z,68.95
2018-05-04T05:29:01.290Z,67.78
2018-05-04T05:30:06.436Z,66.57
2018-05-04T05:31:10.517Z,65.58
2018-05-04T05:32:14.622Z,64.43
2018-05-04T05:33:19.322Z,63.21
2018-05-04T05:34:23.882Z,61.51
2018-05-04T05:35:28.066Z,59.63
2018-05-04T05:36:32.148Z,58.18
2018-05-04T05:37:36.409Z,57.04
2018-05-04T05:38:40.493Z,56.13
2018-05-04T05:39:44.555Z,54.93
2018-05-04T05:40:48.660Z,53.82
2018-05-04T05:41:52.795Z,53.19
2018-05-04T05:42:56.912Z,52.92
2018-05-04T05:44:01.008Z,52.80
2018-05-04T05:45:07.586Z,52.70
2018-05-04T05:46:12.293Z,53.04
2018-05-04T05:47:16.424Z,52.86
2018-05-04T05:48:21.716Z,53.08
2018-05-04T05:49:25.814Z,53.10
2018-05-04T05:50:29.976Z,53.03
2018-05-04T05:51:34.234Z,52.70
2018-05-04T05:52:38.454Z,53.48
2018-05-04T05:53:42.522Z,53.16
2018-05-04T05:54:46.587Z,53.31
2018-05-04T05:55:50.681Z,54.04
2018-05-04T05:56:54.801Z,54.39
2018-05-04T05:57:58.981Z,53.45
2018-05-04T05:59:03.381Z,52.69
2018-05-04T06:00:07.532Z,53.35
2018-05-04T06:01:12.129Z,53.38
2018-05-04T06:02:16.511Z,53.69
2018-05-04T06:03:20.673Z,53.93
2018-05-04T06:04:25.076Z,53.77
2018-05-04T06:05:29.232Z,54.27
2018-05-04T06:06:33.314Z,54.64
2018-05-04T06:07:37.441Z,54.44
2018-05-04T06:08:41.509Z,54.90
2018-05-04T06:09:45.671Z,55.41
2018-05-04T06:10:50.136Z,55.45
2018-05-04T06:11:54.265Z,55.66
2018-05-04T06:12:58.425Z,54.20
2018-05-04T06:14:02.581Z,54.39
2018-05-04T06:15:06.676Z,53.85
2018-05-04T06:16:11.716Z,54.49
2018-05-04T06:17:15.797Z,54.53
2018-05-04T06:18:19.882Z,54.10
2018-05-04T06:19:23.982Z,53.59
2018-05-04T06:20:28.048Z,53.68
2018-05-04T06:21:32.280Z,53.86
2018-05-04T06:22:36.746Z,53.17
2018-05-04T06:23:40.850Z,52.81
2018-05-04T06:24:44.965Z,52.14
2018-05-04T06:25:49.122Z,52.51
2018-05-04T06:26:53.254Z,52.76
2018-05-04T06:27:57.329Z,52.17
2018-05-04T06:29:01.423Z,52.53
2018-05-04T06:30:07.036Z,51.57
2018-05-04T06:31:12.478Z,51.26
2018-05-04T06:32:17.115Z,51.18
2018-05-04T06:33:21.197Z,51.26
2018-05-04T06:34:25.392Z,51.01
2018-05-04T06:35:29.777Z,51.58
2018-05-04T06:36:33.994Z,51.13
2018-05-04T06:37:38.095Z,51.57
2018-05-04T06:38:42.349Z,51.70
2018-05-04T06:39:46.486Z,51.84
2018-05-04T06:40:50.597Z,51.63
2018-05-04T06:41:54.664Z,52.11
2018-05-04T06:42:58.735Z,50.72
2018-05-04T06:44:02.849Z,50.90
2018-05-04T06:45:07.409Z,51.37
2018-05-04T06:46:12.578Z,51.82
2018-05-04T06:47:16.984Z,51.89
2018-05-04T06:48:21.077Z,51.65
2018-05-04T06:49:25.147Z,51.66
2018-05-04T06:50:29.345Z,51.68
2018-05-04T06:51:33.406Z,52.22
2018-05-04T06:52:37.477Z,51.86
2018-05-04T06:53:42.047Z,51.78
2018-05-04T06:54:46.250Z,51.29
2018-05-04T06:55:50.368Z,51.39
2018-05-04T06:56:54.523Z,51.83
2018-05-04T06:57:58.635Z,50.88
2018-05-04T06:59:02.710Z,49.47
2018-05-04T07:00:07.895Z,49.78
2018-05-04T07:01:12.400Z,49.53
2018-05-04T07:02:16.686Z,49.09
2018-05-04T07:03:20.748Z,48.83
2018-05-04T07:04:24.829Z,48.81
2018-05-04T07:05:29.012Z,48.08
2018-05-04T07:06:33.430Z,48.16
2018-05-04T07:07:37.590Z,48.71
2018-05-04T07:08:41.673Z,49.05
2018-05-04T07:09:45.829Z,49.95
2018-05-04T07:10:50.032Z,50.76
2018-05-04T07:11:54.214Z,50.64
2018-05-04T07:12:58.302Z,50.11
2018-05-04T07:14:02.394Z,49.90
2018-05-04T07:15:06.712Z,50.04
2018-05-04T07:16:11.397Z,49.24
2018-05-04T07:17:16.550Z,48.34
2018-05-04T07:18:21.162Z,47.91
2018-05-04T07:19:25.241Z,46.77
2018-05-04T07:20:29.387Z,46.19
2018-05-04T07:21:33.492Z,45.36
2018-05-04T07:22:37.563Z,44.91
2018-05-04T07:23:41.650Z,44.90
2018-05-04T07:24:46.126Z,44.59
2018-05-04T07:25:50.334Z,44.29
2018-05-04T07:26:54.525Z,43.74
2018-05-04T07:27:58.644Z,42.45
2018-05-04T07:29:02.785Z,40.58
2018-05-04T07:30:07.264Z,40.68
2018-05-04T07:31:11.646Z,39.90
2018-05-04T07:32:15.765Z,39.29
2018-05-04T07:33:19.860Z,39.27
2018-05-04T07:34:24.022Z,39.19
2018-05-04T07:35:28.150Z,38.71
2018-05-04T07:36:32.232Z,38.43
2018-05-04T07:37:36.297Z,38.71
2018-05-04T07:38:40.445Z,38.86
2018-05-04T07:39:44.640Z,39.40
2018-05-04T07:40:48.887Z,38.27
2018-05-04T07:41:53.062Z,38.68
2018-05-04T07:42:57.165Z,38.03
2018-05-04T07:44:01.740Z,40.13
2018-05-04T07:45:06.800Z,39.19
2018-05-04T07:46:11.372Z,40.00
2018-05-04T07:47:15.601Z,39.05
2018-05-04T07:49:35.762Z,39.62
2018-05-04T07:50:40.169Z,39.20
2018-05-04T07:51:44.269Z,39.00
2018-05-04T07:52:48.431Z,39.17
2018-05-04T07:53:55.573Z,39.18
2018-05-04T07:54:59.794Z,39.20
2018-05-04T07:56:03.967Z,38.80
2018-05-04T07:57:08.369Z,39.07
2018-05-04T07:58:12.472Z,38.61
2018-05-04T07:59:16.630Z,38.44
2018-05-04T08:00:21.078Z,38.86
2018-05-04T08:01:25.212Z,39.99
2018-05-04T08:02:30.244Z,38.51
2018-05-04T08:03:34.626Z,36.97
2018-05-04T08:04:38.835Z,36.67
2018-05-04T08:05:42.948Z,35.15
2018-05-04T08:06:47.056Z,34.66
2018-05-04T08:07:51.133Z,32.92
2018-05-04T08:08:55.276Z,31.74
2018-05-04T08:09:59.513Z,31.97
2018-05-04T08:11:03.625Z,30.35
2018-05-04T08:12:07.871Z,30.61
2018-05-04T08:13:11.941Z,30.84
2018-05-04T08:14:16.075Z,31.73
2018-05-04T08:15:20.907Z,32.38
2018-05-04T08:16:25.493Z,32.96
2018-05-04T08:17:30.520Z,34.72
2018-05-04T08:18:34.663Z,35.44
2018-05-04T08:19:38.790Z,37.73
2018-05-04T08:20:42.905Z,34.97
2018-05-04T08:21:47.448Z,33.94
2018-05-04T08:22:51.626Z,32.98
2018-05-04T08:23:55.837Z,31.96
2018-05-04T08:24:59.950Z,31.72
2018-05-04T08:26:04.086Z,31.35
2018-05-04T08:27:08.268Z,32.32
2018-05-04T08:28:12.709Z,32.71
2018-05-04T08:29:16.810Z,34.34
2018-05-04T08:30:21.391Z,33.03
2018-05-04T08:31:25.477Z,29.87
2018-05-04T08:32:29.579Z,31.31
2018-05-04T08:33:33.650Z,32.83
2018-05-04T08:34:37.731Z,30.87
2018-05-04T08:35:41.819Z,32.28
2018-05-04T08:36:46.008Z,32.62
2018-05-04T08:37:50.171Z,31.74
2018-05-04T08:38:54.255Z,31.55
2018-05-04T08:39:58.336Z,32.59
2018-05-04T08:41:02.881Z,33.25
2018-05-04T08:42:07.093Z,34.22
2018-05-04T08:43:11.305Z,34.30
2018-05-04T08:44:15.322Z,33.54
2018-05-04T08:45:19.413Z,33.84
2018-05-04T08:46:24.250Z,33.46
2018-05-04T08:47:29.615Z,33.51
2018-05-04T08:48:33.841Z,33.99
2018-05-04T08:49:37.941Z,33.40
2018-05-04T08:50:42.009Z,33.19
2018-05-04T08:51:46.155Z,32.48
2018-05-04T08:52:50.265Z,32.38
2018-05-04T08:53:54.340Z,32.84
2018-05-04T08:54:58.413Z,32.03
2018-05-04T08:56:02.604Z,33.26
2018-05-04T08:57:06.902Z,34.44
2018-05-04T08:58:11.029Z,35.29
2018-05-04T08:59:15.135Z,34.31
2018-05-04T09:00:19.262Z,33.17
2018-05-04T09:01:23.425Z,34.59
2018-05-04T09:02:27.510Z,34.19
2018-05-04T09:03:31.579Z,32.58
2018-05-04T09:04:35.665Z,33.15
2018-05-04T09:05:40.256Z,33.06
2018-05-04T09:06:44.265Z,32.75
2018-05-04T09:07:48.367Z,30.42
2018-05-04T09:08:52.456Z,31.55
2018-05-04T09:09:56.560Z,33.17
2018-05-04T09:11:00.640Z,33.81
2018-05-04T09:12:05.339Z,33.04
2018-05-04T09:13:09.477Z,32.09
2018-05-04T09:14:13.577Z,33.37
2018-05-04T09:15:17.700Z,33.08
2018-05-04T09:16:21.819Z,31.80
2018-05-04T09:17:25.871Z,33.42
2018-05-04T09:18:30.304Z,33.58
2018-05-04T09:19:34.391Z,35.10
2018-05-04T09:20:38.456Z,35.76
2018-05-04T09:21:42.579Z,34.87
2018-05-04T09:22:46.762Z,34.41
2018-05-04T09:23:50.851Z,33.92
2018-05-04T09:24:54.913Z,32.16
2018-05-04T09:25:59.055Z,31.54
2018-05-04T09:27:03.318Z,30.74
2018-05-04T09:28:07.501Z,31.05
2018-05-04T09:29:11.630Z,31.03
2018-05-04T09:30:16.140Z,31.52
2018-05-04T09:31:20.652Z,31.61
2018-05-04T09:32:25.103Z,31.58
2018-05-04T09:33:29.207Z,31.14
2018-05-04T09:34:33.737Z,32.64
2018-05-04T09:35:38.520Z,32.23
2018-05-04T09:36:43.376Z,31.33
2018-05-04T09:37:47.454Z,30.86
2018-05-04T09:38:51.528Z,30.43
2018-05-04T09:39:55.611Z,29.59
2018-05-04T09:40:59.987Z,29.41
2018-05-04T09:42:04.277Z,30.00
2018-05-04T09:43:08.426Z,30.04
2018-05-04T09:44:12.583Z,29.03
2018-05-04T09:45:16.954Z,28.57
2018-05-04T09:46:21.068Z,28.85
2018-05-04T09:47:25.487Z,28.81
2018-05-04T09:48:30.364Z,29.09
2018-05-04T09:49:34.568Z,29.18
2018-05-04T09:50:38.684Z,29.90
2018-05-04T09:51:42.780Z,30.57
2018-05-04T09:52:46.873Z,30.32
2018-05-04T09:53:51.258Z,29.44
2018-05-04T09:54:55.321Z,28.92
2018-05-04T09:55:59.516Z,28.09
2018-05-04T09:57:03.756Z,27.40
2018-05-04T09:58:08.042Z,26.48
2018-05-04T09:59:12.129Z,26.59
2018-05-04T10:00:16.678Z,25.70
2018-05-04T10:01:20.842Z,24.80
2018-05-04T10:02:24.982Z,24.22
2018-05-04T10:03:30.066Z,25.74
2018-05-04T10:04:34.118Z,26.22
2018-05-04T10:05:38.222Z,26.18
2018-05-04T10:06:42.876Z,26.97
2018-05-04T10:07:46.922Z,26.02
2018-05-04T10:08:51.136Z,26.83
2018-05-04T10:09:55.367Z,27.08
2018-05-04T10:10:59.664Z,26.60
2018-05-04T10:12:03.945Z,26.65
2018-05-04T10:13:08.491Z,28.08
2018-05-04T10:14:12.628Z,26.59
2018-05-04T10:15:16.752Z,26.05
2018-05-04T10:16:20.812Z,24.83
2018-05-04T10:17:24.882Z,25.21
2018-05-04T10:18:29.375Z,24.59
2018-05-04T10:19:33.446Z,24.20
2018-05-04T10:20:37.520Z,24.35
2018-05-04T10:21:41.690Z,24.53
2018-05-04T10:22:45.850Z,24.68
2018-05-04T10:23:49.952Z,24.10
2018-05-04T10:24:54.359Z,23.62
2018-05-04T10:25:58.459Z,22.69
2018-05-04T10:27:02.698Z,22.22
2018-05-04T10:28:07.000Z,22.08
2018-05-04T10:29:11.206Z,22.62
2018-05-04T10:30:17.270Z,22.43
2018-05-04T10:31:21.411Z,22.59
2018-05-04T10:32:25.578Z,21.85
2018-05-04T10:33:29.823Z,21.57
2018-05-04T10:34:33.988Z,21.89
2018-05-04T10:35:38.177Z,22.15
2018-05-04T10:36:42.601Z,22.15
2018-05-04T10:37:46.703Z,22.39
2018-05-04T10:38:50.993Z,22.37
2018-05-04T10:39:55.067Z,22.96
2018-05-04T10:40:59.221Z,23.92
2018-05-04T10:42:03.425Z,24.30
2018-05-04T10:43:08.477Z,25.53
2018-05-04T10:44:12.633Z,25.62
2018-05-04T10:45:17.070Z,26.00
2018-05-04T10:46:21.214Z,26.92
2018-05-04T10:47:25.319Z,27.03
2018-05-04T10:48:29.446Z,27.19
2018-05-04T10:49:34.251Z,27.43
2018-05-04T10:50:38.354Z,27.14
2018-05-04T10:51:43.318Z,26.82
2018-05-04T10:52:47.409Z,27.86
2018-05-04T10:53:51.514Z,27.79
2018-05-04T10:54:55.673Z,25.51
2018-05-04T10:55:59.863Z,24.45
2018-05-04T10:57:04.178Z,24.90
2018-05-04T10:58:08.602Z,24.48
2018-05-04T10:59:12.669Z,24.81
2018-05-04T11:00:17.487Z,25.42
2018-05-04T11:01:21.560Z,24.93
2018-05-04T11:02:25.730Z,24.85
2018-05-04T11:03:29.915Z,24.80
2018-05-04T11:04:34.017Z,24.97
2018-05-04T11:05:38.425Z,24.26
2018-05-04T11:06:43.444Z,24.15
2018-05-04T11:07:47.598Z,24.04
2018-05-04T11:08:51.705Z,23.82
2018-05-04T11:09:55.869Z,23.12
2018-05-04T11:10:59.972Z,22.59
2018-05-04T11:12:04.553Z,23.17
2018-05-04T11:13:09.072Z,22.93
2018-05-04T11:14:13.184Z,22.84
2018-05-04T11:15:17.746Z,22.56
2018-05-04T11:16:21.805Z,22.06
2018-05-04T11:17:25.896Z,21.07
2018-05-04T11:18:30.329Z,21.07
2018-05-04T11:19:34.413Z,21.10
2018-05-04T11:20:38.632Z,20.31
2018-05-04T11:21:43.366Z,20.04
2018-05-04T11:22:47.448Z,20.24
2018-05-04T11:23:51.517Z,19.54
2018-05-04T11:24:55.985Z,19.08
2018-05-04T11:26:00.156Z,19.53
2018-05-04T11:27:04.301Z,19.25
2018-05-04T11:28:08.356Z,20.06
2018-05-04T11:29:12.846Z,21.03
2018-05-04T11:30:17.383Z,21.40
2018-05-04T11:31:21.443Z,21.27
2018-05-04T11:32:25.541Z,21.74
2018-05-04T11:33:29.712Z,22.49
2018-05-04T11:34:33.999Z,22.74
2018-05-04T11:35:39.185Z,22.90
2018-05-04T11:36:43.535Z,23.05
2018-05-04T11:37:48.635Z,21.83
2018-05-04T11:38:52.790Z,21.37
2018-05-04T11:39:56.867Z,21.06
2018-05-04T11:41:01.053Z,20.73
2018-05-04T11:42:05.525Z,20.70
2018-05-04T11:43:09.683Z,20.67
2018-05-04T11:44:14.050Z,21.31
2018-05-04T11:45:18.506Z,23.25
2018-05-04T11:46:22.583Z,23.27
2018-05-04T11:47:26.778Z,22.57
2018-05-04T11:48:31.201Z,22.70
2018-05-04T11:49:35.413Z,23.16
2018-05-04T11:50:39.546Z,22.29
2018-05-04T11:51:43.638Z,21.21
2018-05-04T11:52:47.783Z,20.75
2018-05-04T11:53:51.864Z,20.95
2018-05-04T11:54:56.396Z,22.25
2018-05-04T11:56:00.475Z,22.43
2018-05-04T11:57:04.670Z,22.38
2018-05-04T11:58:08.824Z,22.12
2018-05-04T11:59:14.263Z,22.71
2018-05-04T12:00:18.711Z,21.99
2018-05-04T12:01:22.798Z,21.61
2018-05-04T12:02:27.081Z,20.64
2018-05-04T12:03:31.227Z,20.46
2018-05-04T12:04:35.463Z,20.49
2018-05-04T12:05:40.375Z,20.83
2018-05-04T12:06:44.805Z,20.76
2018-05-04T12:07:49.313Z,20.72
2018-05-04T12:08:53.381Z,20.29
2018-05-04T12:09:57.470Z,20.75
2018-05-04T12:11:01.582Z,22.47
2018-05-04T12:12:05.661Z,22.72
2018-05-04T12:13:10.092Z,21.51
2018-05-04T12:14:14.725Z,21.25
2018-05-04T12:15:19.161Z,20.29
2018-05-04T12:16:23.249Z,19.37
2018-05-04T12:17:27.455Z,19.29
2018-05-04T12:18:31.571Z,19.65
2018-05-04T12:19:35.682Z,19.16
2018-05-04T12:20:39.831Z,18.55
2018-05-04T12:21:44.013Z,17.64
2018-05-04T12:22:48.461Z,17.34
2018-05-04T12:23:52.590Z,17.27
2018-05-04T12:24:56.817Z,17.03
2018-05-04T12:26:01.299Z,18.00
2018-05-04T12:27:05.400Z,19.54
2018-05-04T12:28:09.517Z,20.16
2018-05-04T12:29:13.886Z,18.96
2018-05-04T12:30:18.052Z,18.97
2018-05-04T12:31:22.591Z,18.47
2018-05-04T12:32:26.717Z,18.06
2018-05-04T12:33:30.887Z,17.92
2018-05-04T12:34:34.984Z,17.04
2018-05-04T12:35:39.088Z,17.05
2018-05-04T12:36:43.264Z,17.62
2018-05-04T12:37:47.677Z,18.55
2018-05-04T12:38:51.787Z,18.35
2018-05-04T12:39:55.949Z,17.84
2018-05-04T12:41:00.105Z,17.79
2018-05-04T12:42:04.261Z,17.10
2018-05-04T12:43:08.355Z,17.57
2018-05-04T12:44:12.761Z,17.69
2018-05-04T12:45:16.941Z,17.11
2018-05-04T12:46:21.087Z,17.58
2018-05-04T12:47:25.149Z,17.99
2018-05-04T12:48:29.277Z,18.59
2018-05-04T12:49:33.708Z,18.66
2018-05-04T12:50:37.784Z,18.28
2018-05-04T12:51:41.972Z,17.97
2018-05-04T12:52:47.397Z,17.60
2018-05-04T12:53:51.696Z,18.08
2018-05-04T12:54:56.349Z,17.88
2018-05-04T12:56:00.784Z,18.67
2018-05-04T12:57:04.879Z,19.33
2018-05-04T12:58:09.072Z,20.42
2018-05-04T12:59:13.639Z,20.17
2018-05-04T13:00:22.023Z,19.35
2018-05-04T13:01:26.425Z,19.03
2018-05-04T13:02:31.241Z,18.39
2018-05-04T13:03:35.345Z,17.73
2018-05-04T13:04:39.455Z,17.62
2018-05-04T13:05:43.673Z,17.41
2018-05-04T13:06:47.769Z,17.61
2018-05-04T13:07:53.055Z,17.98
2018-05-04T13:08:57.265Z,17.89
2018-05-04T13:10:01.368Z,17.25
2018-05-04T13:11:05.444Z,16.66
2018-05-04T13:12:10.329Z,16.70
2018-05-04T13:13:14.901Z,16.91
2018-05-04T13:14:19.391Z,16.96
2018-05-04T13:15:23.517Z,18.22
2018-05-04T13:16:27.665Z,18.41
2018-05-04T13:17:31.794Z,18.18
2018-05-04T13:18:35.815Z,17.70
2018-05-04T13:19:40.009Z,17.16
2018-05-04T13:20:44.511Z,17.10
2018-05-04T13:21:48.684Z,17.05
2018-05-04T13:22:53.377Z,16.39
2018-05-04T13:23:57.563Z,15.63
2018-05-04T13:25:01.679Z,15.79
2018-05-04T13:26:05.796Z,15.26
2018-05-04T13:27:09.991Z,15.45
2018-05-04T13:28:14.355Z,15.98
2018-05-04T13:29:18.597Z,17.08
2018-05-04T13:30:23.417Z,17.35
2018-05-04T13:31:27.814Z,17.56
2018-05-04T13:32:32.229Z,17.07
2018-05-04T13:33:36.719Z,16.80
2018-05-04T13:34:40.882Z,17.03
2018-05-04T13:35:45.016Z,17.13
2018-05-04T13:36:49.095Z,17.42
2018-05-04T13:37:53.189Z,17.60
2018-05-04T13:38:57.801Z,17.78
2018-05-04T13:40:03.253Z,17.29
2018-05-04T13:41:07.350Z,17.93
2018-05-04T13:42:11.658Z,18.89
2018-05-04T13:43:15.976Z,18.77
2018-05-04T13:44:20.199Z,18.74
2018-05-04T13:45:24.524Z,18.41
2018-05-04T13:46:29.291Z,17.55
2018-05-04T13:47:33.395Z,17.67
2018-05-04T13:48:37.544Z,17.52
2018-05-04T13:49:41.819Z,17.54
2018-05-04T13:50:45.940Z,17.59
2018-05-04T13:51:50.053Z,17.49
2018-05-04T13:52:54.217Z,18.51
2018-05-04T13:53:59.333Z,19.04
2018-05-04T13:55:03.496Z,18.38